New Orleans, Louisiana
Traffic Map
Current Weather Conditions
New Orleans, Louisiana
Clear
Clear
23°
Feels Like: 23°
Wind Chill: 23° Ceiling: Unl
Heat Index: 23° Visibility: 10mi
Dew Point: 16° Wind: 16mph
Humidity: 64% Direction: 170° (S)
Pressure: 30.2in Gusts: 0mph
Raw Report DataKNEW 292353Z AUTO 17014KT 10SM CLR 23/16 A3020 RMK AO2 SLP219 T02280156 10256 20228 55003 TSNO
Traffic Incident Summary
Active as of:
Severity:
Category:
InformationThere was an issue retrieving the traffic information for this location. Please try a different location or try again shortly.
Advertisements
Track Severe Weather on mobile